Time;durP1;ratioP1;P1;durP2;ratioP2;P2;SDS_P1;SDS_P2;PMS_P1;PMS_P2;Temp;Humidity;BMP_temperature;BMP_pressure;BME280_temperature;BME280_humidity;BME280_pressure;Samples;Min_cycle;Max_cycle;Signal;HPM_P1;HPM_P2
2021/12/23 00:00:16;;;;;;;;;;;;;;;13.40;53.28;101301.28;1041598;28;1488;-58
2021/12/23 00:01:06;;;;;;;;;;;;;;;13.38;52.50;101303.22;1042163;28;641;-57
2021/12/23 00:01:56;;;;;;;;;;;;;;;13.39;53.22;101294.22;1042164;28;639;-57
2021/12/23 00:02:47;;;;;;;;;;;;;;;13.38;52.62;101291.66;1041877;28;802;-57
2021/12/23 00:03:37;;;;;;;;;;;;;;;13.37;53.04;101290.78;1041592;28;661;-55
2021/12/23 00:04:28;;;;;;;;;;;;;;;13.37;52.96;101280.09;1036683;28;685;-57
2021/12/23 00:05:18;;;;;;;;;;;;;;;13.37;52.54;101264.03;1037300;28;649;-57
2021/12/23 00:06:08;;;;;;;;;;;;;;;13.36;52.48;101256.94;1037574;28;629;-58
2021/12/23 00:06:59;;;;;;;;;;;;;;;13.37;52.67;101247.09;1037284;28;656;-57
2021/12/23 00:07:50;;;;;;;;;;;;;;;13.36;53.05;101246.25;1037898;28;814;-57
2021/12/23 00:08:40;;;;;;;;;;;;;;;13.35;53.18;101244.53;1037177;28;648;-57
2021/12/23 00:10:01;;;;;;;;;;;;;;;13.37;53.37;101241.75;1037549;28;782;-57
2021/12/23 00:10:41;;;;;;;;;;;;;;;13.36;53.31;101234.69;1037362;28;843;-57
2021/12/23 00:11:31;;;;;;;;;;;;;;;13.36;52.53;101232.00;1037427;28;744;-56
2021/12/23 00:12:22;;;;;;;;;;;;;;;13.34;53.35;101237.47;1037243;28;1304;-57
2021/12/23 00:13:12;;;;;;;;;;;;;;;13.34;53.11;101232.13;1041362;28;1197;-57
2021/12/23 00:14:05;;;;;;;;;;;;;;;13.34;52.51;101234.78;1040915;28;1421;-56
2021/12/23 00:14:56;;;;;;;;;;;;;;;13.34;52.97;101236.59;1041778;28;1270;-57
2021/12/23 00:16:47;;;;;;;;;;;;;;;13.34;53.49;101250.00;1040773;28;1270;-57
2021/12/23 00:18:02;;;;;;;;;;;;;;;13.34;52.55;101258.88;1038464;28;1274;-57
2021/12/23 00:18:56;;;;;;;;;;;;;;;13.35;52.78;101281.16;1039841;28;953;-57
2021/12/23 00:23:21;;;;;;;;;;;;;;;13.34;52.64;101280.28;1040433;28;1269;-57
2021/12/23 00:23:34;;;;;;;;;;;;;;;13.34;52.78;101277.63;1021411;29;1530;-57
2021/12/23 00:24:24;;;;;;;;;;;;;;;13.34;52.44;101272.25;1020329;29;1272;-57
2021/12/23 00:25:15;;;;;;;;;;;;;;;13.33;52.60;101270.56;1039029;28;1376;-57
2021/12/23 00:26:05;;;;;;;;;;;;;;;13.33;52.47;101264.34;1039393;28;1349;-56
2021/12/23 00:26:55;;;;;;;;;;;;;;;13.32;52.83;101260.81;1039618;28;1201;-56
2021/12/23 00:27:46;;;;;;;;;;;;;;;13.32;52.71;101265.31;1039161;28;1135;-54
2021/12/23 00:28:36;;;;;;;;;;;;;;;13.33;53.00;101256.31;1039039;28;1015;-55
2021/12/23 00:29:27;;;;;;;;;;;;;;;13.31;53.42;101253.72;1039062;28;1082;-55
2021/12/23 00:30:17;;;;;;;;;;;;;;;13.31;52.85;101247.53;1039120;28;1137;-55
2021/12/23 00:31:07;;;;;;;;;;;;;;;13.29;53.22;101244.94;1039356;28;1189;-57
2021/12/23 00:31:59;;;;;;;;;;;;;;;13.30;52.60;101240.47;1039135;28;1146;-56
2021/12/23 00:32:49;;;;;;;;;;;;;;;13.29;52.72;101234.25;1039886;28;1095;-54
2021/12/23 00:33:40;;;;;;;;;;;;;;;13.30;52.94;101237.78;1039368;28;1521;-56
2021/12/23 00:34:31;;;;;;;;;;;;;;;13.30;53.24;101235.09;1040673;28;1121;-55
2021/12/23 00:35:21;;;;;;;;;;;;;;;13.29;52.59;101231.56;1039197;28;1253;-53
2021/12/23 00:36:12;;;;;;;;;;;;;;;13.29;52.99;101239.59;1040612;28;1191;-56
2021/12/23 00:37:05;;;;;;;;;;;;;;;13.29;53.74;101234.25;1038871;28;1191;-54
2021/12/23 00:38:01;;;;;;;;;;;;;;;13.29;52.55;101247.63;1040616;28;1293;-55
2021/12/23 00:38:55;;;;;;;;;;;;;;;13.30;53.17;101246.66;1039253;28;1267;-57
2021/12/23 00:39:46;;;;;;;;;;;;;;;13.30;52.56;101252.03;1039648;28;1333;-57
2021/12/23 00:40:36;;;;;;;;;;;;;;;13.30;52.97;101245.81;1039340;28;1179;-57
2021/12/23 00:41:30;;;;;;;;;;;;;;;13.29;52.58;101239.59;1039999;28;1311;-57
2021/12/23 00:42:21;;;;;;;;;;;;;;;13.28;52.93;101234.34;1040176;28;1124;-57
2021/12/23 00:43:11;;;;;;;;;;;;;;;13.29;53.57;101236.91;1041203;28;1287;-57
2021/12/23 00:44:01;;;;;;;;;;;;;;;13.28;52.71;101227.19;1040473;28;1314;-58
2021/12/23 00:44:52;;;;;;;;;;;;;;;13.28;52.71;101229.84;1039214;28;1350;-57
2021/12/23 00:45:42;;;;;;;;;;;;;;;13.27;52.78;101222.78;1039397;28;1356;-58
2021/12/23 00:46:33;;;;;;;;;;;;;;;13.28;52.86;101223.63;1038584;28;1198;-58
2021/12/23 00:47:23;;;;;;;;;;;;;;;13.28;53.55;101223.63;1039302;28;1963;-57
2021/12/23 00:48:13;;;;;;;;;;;;;;;13.27;53.44;101220.09;1039343;28;1365;-57
2021/12/23 00:49:05;;;;;;;;;;;;;;;13.28;53.45;101226.31;1039552;28;1324;-58
2021/12/23 00:49:56;;;;;;;;;;;;;;;13.27;52.73;101224.59;1039086;28;1173;-58
2021/12/23 00:50:47;;;;;;;;;;;;;;;13.26;53.23;101226.44;1040091;28;1142;-58
2021/12/23 00:51:37;;;;;;;;;;;;;;;13.26;53.31;101221.06;1041141;28;1209;-58
2021/12/23 00:52:35;;;;;;;;;;;;;;;13.27;53.03;101217.44;1039299;28;1210;-58
2021/12/23 00:53:26;;;;;;;;;;;;;;;13.27;53.50;101214.75;1038446;28;1225;-56
2021/12/23 00:54:17;;;;;;;;;;;;;;;13.26;53.32;101213.03;1039566;28;1260;-57
2021/12/23 00:55:07;;;;;;;;;;;;;;;13.26;53.21;101215.72;1039500;28;1219;-57
2021/12/23 00:55:58;;;;;;;;;;;;;;;13.25;52.64;101211.38;1039536;28;1209;-57
2021/12/23 00:56:50;;;;;;;;;;;;;;;13.26;53.54;101212.19;1039513;28;1206;-56
2021/12/23 00:57:41;;;;;;;;;;;;;;;13.25;52.71;101216.72;1037406;28;1257;-57
2021/12/23 00:58:31;;;;;;;;;;;;;;;13.24;53.25;101225.72;1037759;28;1240;-56
2021/12/23 00:59:21;;;;;;;;;;;;;;;13.24;53.03;101214.16;1039083;28;1225;-57
2021/12/23 01:00:12;;;;;;;;;;;;;;;13.23;52.81;101224.00;1038846;28;1303;-56
2021/12/23 01:01:02;;;;;;;;;;;;;;;13.23;53.00;101224.00;1039093;28;1309;-56
2021/12/23 01:01:53;;;;;;;;;;;;;;;13.22;53.44;101216.91;1038656;28;1519;-55
2021/12/23 01:02:45;;;;;;;;;;;;;;;13.22;52.69;101226.78;1040775;28;1234;-55
2021/12/23 01:03:35;;;;;;;;;;;;;;;13.22;53.73;101219.59;1040959;28;1248;-55
2021/12/23 01:04:25;;;;;;;;;;;;;;;13.23;53.22;101229.34;1039205;28;1199;-57
2021/12/23 01:05:16;;;;;;;;;;;;;;;13.23;53.36;101231.16;1039112;28;1086;-56
2021/12/23 01:06:06;;;;;;;;;;;;;;;13.23;53.29;101218.63;1039863;28;1479;-56
2021/12/23 01:06:57;;;;;;;;;;;;;;;13.23;53.06;101231.16;1039359;28;1177;-58
2021/12/23 01:07:47;;;;;;;;;;;;;;;13.20;52.62;101235.75;1039377;28;1215;-58
2021/12/23 01:08:38;;;;;;;;;;;;;;;13.20;52.87;101234.91;1040975;28;996;-57
2021/12/23 01:09:28;;;;;;;;;;;;;;;13.22;53.20;101241.00;1039522;28;1246;-58
2021/12/23 01:10:20;;;;;;;;;;;;;;;13.22;53.66;101237.47;1039695;28;1205;-58
2021/12/23 01:11:11;;;;;;;;;;;;;;;13.23;53.66;101244.53;1039690;28;1229;-58
2021/12/23 01:12:01;;;;;;;;;;;;;;;13.23;52.96;101233.84;1039166;28;1367;-57
2021/12/23 01:12:57;;;;;;;;;;;;;;;13.22;53.03;101237.47;1038777;28;1233;-57
2021/12/23 01:14:00;;;;;;;;;;;;;;;13.20;53.06;101229.56;1040056;28;1197;-57
2021/12/23 01:15:09;;;;;;;;;;;;;;;13.22;52.67;101237.47;1039622;28;1221;-57
2021/12/23 01:16:04;;;;;;;;;;;;;;;13.22;53.54;101232.13;1039660;28;1059;-57
2021/12/23 01:18:00;;;;;;;;;;;;;;;13.21;52.97;101217.88;1040670;28;1222;-57
2021/12/23 01:18:54;;;;;;;;;;;;;;;13.19;53.32;101222.47;1038894;28;1027;-58
2021/12/23 01:19:50;;;;;;;;;;;;;;;13.19;52.88;101225.16;1038609;28;1288;-58
2021/12/23 01:20:45;;;;;;;;;;;;;;;13.18;53.39;101210.06;1039415;28;1063;-58
2021/12/23 01:21:35;;;;;;;;;;;;;;;13.17;53.22;101211.03;1039240;28;1229;-57
2021/12/23 01:22:26;;;;;;;;;;;;;;;13.18;53.60;101212.75;1039160;28;1209;-57
2021/12/23 01:23:16;;;;;;;;;;;;;;;13.17;53.11;101206.53;1039209;28;1190;-57
2021/12/23 01:24:09;;;;;;;;;;;;;;;13.16;53.17;101214.66;1039611;28;1205;-58
2021/12/23 01:24:59;;;;;;;;;;;;;;;13.17;52.94;101200.31;1040391;28;1225;-58
2021/12/23 01:25:50;;;;;;;;;;;;;;;13.16;53.08;101196.78;1038026;28;1300;-58
2021/12/23 01:26:41;;;;;;;;;;;;;;;13.17;52.93;101203.00;1039189;28;1276;-56
2021/12/23 01:27:31;;;;;;;;;;;;;;;13.16;52.90;101195.94;1037524;28;1965;-56
2021/12/23 01:28:22;;;;;;;;;;;;;;;13.15;53.05;101194.22;1037924;28;622;-57
2021/12/23 01:29:12;;;;;;;;;;;;;;;13.15;52.89;101189.72;1037988;28;598;-57
2021/12/23 01:30:03;;;;;;;;;;;;;;;13.14;53.50;101182.63;1037983;28;721;-54
2021/12/23 01:30:53;;;;;;;;;;;;;;;13.16;52.98;101174.53;1037486;28;682;-56
2021/12/23 01:31:45;;;;;;;;;;;;;;;13.16;53.76;101177.19;1038241;28;740;-56
2021/12/23 01:32:35;;;;;;;;;;;;;;;13.14;53.76;101177.28;1037450;28;633;-56
2021/12/23 01:33:26;;;;;;;;;;;;;;;13.15;53.68;101180.84;1040738;28;700;-56
2021/12/23 01:34:16;;;;;;;;;;;;;;;13.16;53.75;101182.56;1041375;28;561;-56
2021/12/23 01:35:06;;;;;;;;;;;;;;;13.16;52.79;101174.53;1038020;28;672;-55
2021/12/23 01:35:57;;;;;;;;;;;;;;;13.16;53.66;101164.69;1037447;28;637;-56
2021/12/23 01:36:47;;;;;;;;;;;;;;;13.16;52.93;101155.78;1037234;28;629;-56
2021/12/23 01:37:38;;;;;;;;;;;;;;;13.16;53.39;101150.44;1037731;28;657;-56
2021/12/23 01:38:28;;;;;;;;;;;;;;;13.17;53.73;101149.47;1037479;28;629;-56
2021/12/23 01:39:18;;;;;;;;;;;;;;;13.16;53.52;101143.28;1038170;28;730;-58
2021/12/23 01:40:09;;;;;;;;;;;;;;;13.18;53.60;101145.84;1041628;28;1202;-58
2021/12/23 01:40:59;;;;;;;;;;;;;;;13.18;53.07;101129.78;1044038;28;1305;-58
2021/12/23 01:41:50;;;;;;;;;;;;;;;13.17;53.17;101136.09;1039234;28;1192;-58
2021/12/23 01:42:40;;;;;;;;;;;;;;;13.16;53.18;101127.22;1038711;28;1113;-58
2021/12/23 01:43:30;;;;;;;;;;;;;;;13.14;53.45;101126.44;1037762;28;1099;-59
2021/12/23 01:44:21;;;;;;;;;;;;;;;13.16;53.08;101137.06;1039781;28;1090;-59
2021/12/23 01:45:11;;;;;;;;;;;;;;;13.13;53.85;101129.22;1039200;28;1206;-59
2021/12/23 01:46:02;;;;;;;;;;;;;;;13.14;53.33;101131.78;1039198;28;1260;-58
2021/12/23 01:46:52;;;;;;;;;;;;;;;13.13;53.77;101121.19;1039263;28;1190;-58
2021/12/23 01:47:43;;;;;;;;;;;;;;;13.13;53.03;101123.88;1039543;28;1272;-57
2021/12/23 01:48:33;;;;;;;;;;;;;;;13.12;53.04;101120.34;1039359;28;1203;-57
2021/12/23 01:49:23;;;;;;;;;;;;;;;13.12;52.98;101119.47;1038786;28;1121;-58
2021/12/23 01:50:14;;;;;;;;;;;;;;;13.12;53.13;101119.47;1039349;28;1292;-57
2021/12/23 01:51:04;;;;;;;;;;;;;;;13.11;53.92;101123.97;1041458;28;1098;-56
2021/12/23 01:51:55;;;;;;;;;;;;;;;13.10;53.08;101121.41;1041470;28;1267;-56
2021/12/23 01:52:45;;;;;;;;;;;;;;;13.11;53.79;101117.75;1040912;28;1280;-56
2021/12/23 01:53:35;;;;;;;;;;;;;;;13.11;53.73;101112.41;1040358;28;1150;-55
2021/12/23 01:54:26;;;;;;;;;;;;;;;13.11;52.97;101113.28;1040351;28;1127;-56
2021/12/23 01:55:16;;;;;;;;;;;;;;;13.10;53.31;101111.56;1039050;28;1266;-56
2021/12/23 01:56:07;;;;;;;;;;;;;;;13.11;53.73;101117.75;1039229;28;1206;-56
2021/12/23 01:56:57;;;;;;;;;;;;;;;13.10;53.81;101126.75;1039392;28;1214;-56
2021/12/23 01:57:48;;;;;;;;;;;;;;;13.10;53.58;101129.44;1039466;28;1209;-55
2021/12/23 01:58:38;;;;;;;;;;;;;;;13.09;53.45;101133.06;1036429;28;614;-54
2021/12/23 01:59:28;;;;;;;;;;;;;;;13.09;52.89;101143.75;1037761;28;948;-58
2021/12/23 02:00:19;;;;;;;;;;;;;;;13.09;53.40;101141.09;1036872;28;606;-58
2021/12/23 02:01:09;;;;;;;;;;;;;;;13.09;53.29;101141.09;1037053;28;653;-58
2021/12/23 02:02:00;;;;;;;;;;;;;;;13.09;53.82;101136.59;1037800;28;1854;-58
2021/12/23 02:02:50;;;;;;;;;;;;;;;13.10;52.85;101137.44;1037005;28;606;-57
2021/12/23 02:03:41;;;;;;;;;;;;;;;13.10;53.30;101134.78;1032653;28;1051;-58
2021/12/23 02:04:31;;;;;;;;;;;;;;;13.09;53.74;101131.25;1035880;28;665;-58
2021/12/23 02:05:22;;;;;;;;;;;;;;;13.08;52.93;101129.53;1037106;28;630;-58
2021/12/23 02:06:12;;;;;;;;;;;;;;;13.08;53.23;101132.22;1033419;28;637;-59
2021/12/23 02:07:04;;;;;;;;;;;;;;;13.09;53.72;101133.06;1033429;28;1087;-57
2021/12/23 02:07:54;;;;;;;;;;;;;;;13.08;53.66;101134.03;1036895;28;1775;-56
2021/12/23 02:08:44;;;;;;;;;;;;;;;13.07;53.61;101133.19;1037585;28;696;-56
2021/12/23 02:09:35;;;;;;;;;;;;;;;13.08;53.08;101131.34;1037602;28;764;-56
2021/12/23 02:10:25;;;;;;;;;;;;;;;13.07;53.71;101130.53;1037554;28;630;-56
2021/12/23 02:11:16;;;;;;;;;;;;;;;13.07;53.82;101127.84;1037593;28;629;-56
2021/12/23 02:12:06;;;;;;;;;;;;;;;13.06;53.23;101126.13;1037063;28;1677;-57
2021/12/23 02:12:56;;;;;;;;;;;;;;;13.06;53.63;101134.16;1037734;28;668;-57
2021/12/23 02:13:47;;;;;;;;;;;;;;;13.05;53.40;101131.59;1037434;28;700;-57
2021/12/23 02:14:37;;;;;;;;;;;;;;;13.05;53.68;101129.78;1037146;28;677;-57
2021/12/23 02:15:28;;;;;;;;;;;;;;;13.06;52.84;101127.97;1037467;28;649;-56
2021/12/23 02:16:18;;;;;;;;;;;;;;;13.05;52.91;101124.44;1037325;28;692;-55
2021/12/23 02:17:09;;;;;;;;;;;;;;;13.04;53.09;101120.03;1036780;28;721;-57
2021/12/23 02:17:59;;;;;;;;;;;;;;;13.05;53.65;101126.25;1037332;28;645;-56
2021/12/23 02:18:50;;;;;;;;;;;;;;;13.04;53.83;101122.72;1037477;28;642;-56
2021/12/23 02:19:40;;;;;;;;;;;;;;;13.04;52.81;101116.50;1037597;28;693;-55
2021/12/23 02:20:30;;;;;;;;;;;;;;;13.04;53.03;101114.69;1037402;28;716;-54
2021/12/23 02:21:21;;;;;;;;;;;;;;;13.04;53.66;101113.84;1038114;28;637;-53
2021/12/23 02:22:11;;;;;;;;;;;;;;;13.05;53.75;101110.19;1037175;28;1964;-54
2021/12/23 02:23:02;;;;;;;;;;;;;;;13.04;53.04;101103.97;1037708;28;1873;-56
2021/12/23 02:23:52;;;;;;;;;;;;;;;13.03;53.48;101104.94;1033419;28;669;-55
2021/12/23 02:24:42;;;;;;;;;;;;;;;13.03;53.76;101106.75;1033454;28;669;-56
2021/12/23 02:25:33;;;;;;;;;;;;;;;13.02;53.65;101103.22;1033519;28;679;-55
2021/12/23 02:26:23;;;;;;;;;;;;;;;13.02;53.60;101099.69;1033367;28;705;-55
2021/12/23 02:27:14;;;;;;;;;;;;;;;13.01;53.46;101106.88;1033328;28;1886;-55
2021/12/23 02:28:07;;;;;;;;;;;;;;;13.00;53.77;101098.94;1033357;28;628;-54
2021/12/23 02:28:58;;;;;;;;;;;;;;;13.02;53.15;101107.72;1037223;28;661;-55
2021/12/23 02:29:48;;;;;;;;;;;;;;;13.01;53.73;101098.00;1037297;28;661;-56
2021/12/23 02:30:39;;;;;;;;;;;;;;;13.01;52.98;101100.66;1033025;28;681;-55
2021/12/23 02:31:29;;;;;;;;;;;;;;;13.00;53.62;101098.94;1033326;28;627;-55
2021/12/23 02:32:19;;;;;;;;;;;;;;;13.00;52.72;101098.94;1035757;28;1769;-56
2021/12/23 02:33:10;;;;;;;;;;;;;;;13.00;53.32;101094.47;1038063;28;656;-56
2021/12/23 02:34:01;;;;;;;;;;;;;;;12.99;53.51;101097.25;1037479;28;723;-56
2021/12/23 02:34:51;;;;;;;;;;;;;;;12.99;53.39;101102.59;1037953;28;692;-56
2021/12/23 02:35:42;;;;;;;;;;;;;;;12.98;53.31;101095.53;1037829;28;715;-56
2021/12/23 02:36:32;;;;;;;;;;;;;;;12.99;53.04;101089.22;1038116;28;627;-56
2021/12/23 02:37:22;;;;;;;;;;;;;;;13.00;53.52;101096.28;1037797;28;681;-53
2021/12/23 02:38:13;;;;;;;;;;;;;;;13.00;53.08;101099.81;1038084;28;688;-56
2021/12/23 02:39:03;;;;;;;;;;;;;;;12.99;53.89;101091.88;1037918;28;950;-55
2021/12/23 02:39:54;;;;;;;;;;;;;;;12.98;53.37;101090.19;1037990;28;708;-56
2021/12/23 02:40:44;;;;;;;;;;;;;;;12.97;52.98;101086.66;1038136;28;696;-57
2021/12/23 02:41:34;;;;;;;;;;;;;;;12.98;53.03;101076.81;1037946;28;708;-55
2021/12/23 02:42:25;;;;;;;;;;;;;;;12.97;53.03;101083.13;1037726;28;1651;-56
2021/12/23 02:43:15;;;;;;;;;;;;;;;12.97;52.90;101075.09;1037382;28;610;-56
2021/12/23 02:44:06;;;;;;;;;;;;;;;12.97;53.74;101067.06;1037256;28;1903;-55
2021/12/23 02:44:58;;;;;;;;;;;;;;;12.96;53.29;101063.53;1037495;28;626;-55
2021/12/23 02:45:48;;;;;;;;;;;;;;;12.96;53.84;101060.00;1037526;28;649;-56
2021/12/23 02:46:39;;;;;;;;;;;;;;;12.97;53.07;101064.38;1037881;28;719;-55
2021/12/23 02:47:29;;;;;;;;;;;;;;;12.96;53.31;101060.84;1037825;28;1886;-57
2021/12/23 02:48:19;;;;;;;;;;;;;;;12.97;53.77;101072.41;1037486;28;735;-55
2021/12/23 02:49:10;;;;;;;;;;;;;;;12.96;53.21;101073.38;1037975;28;621;-57
2021/12/23 02:50:00;;;;;;;;;;;;;;;12.96;53.56;101068.03;1034042;28;601;-55
2021/12/23 02:50:51;;;;;;;;;;;;;;;12.94;52.91;101068.13;1033907;28;732;-55
2021/12/23 02:51:41;;;;;;;;;;;;;;;12.94;53.40;101069.94;1033810;28;642;-55
2021/12/23 02:52:31;;;;;;;;;;;;;;;12.94;53.47;101067.28;1033801;28;713;-55
2021/12/23 02:53:22;;;;;;;;;;;;;;;12.93;53.85;101068.25;1033946;28;617;-56
2021/12/23 02:54:12;;;;;;;;;;;;;;;12.93;53.36;101060.22;1033624;28;1760;-54
2021/12/23 02:55:03;;;;;;;;;;;;;;;12.93;53.23;101069.09;1036878;28;696;-54
2021/12/23 02:55:54;;;;;;;;;;;;;;;12.93;53.30;101065.56;1037838;28;670;-56
2021/12/23 02:56:44;;;;;;;;;;;;;;;12.93;53.44;101060.22;1037269;28;653;-56
2021/12/23 02:57:34;;;;;;;;;;;;;;;12.94;53.47;101064.59;1037911;28;747;-55
2021/12/23 02:58:25;;;;;;;;;;;;;;;12.93;53.09;101054.88;1037960;28;720;-57
2021/12/23 02:59:15;;;;;;;;;;;;;;;12.92;52.96;101064.72;1038004;28;662;-56
2021/12/23 03:00:06;;;;;;;;;;;;;;;12.92;54.23;101059.34;1037817;28;688;-54
2021/12/23 03:00:56;;;;;;;;;;;;;;;12.91;52.84;101063.00;1038055;28;696;-56
2021/12/23 03:01:46;;;;;;;;;;;;;;;12.91;53.46;101060.31;1037836;28;725;-56
2021/12/23 03:02:37;;;;;;;;;;;;;;;12.91;53.67;101059.47;1038159;28;834;-53
2021/12/23 03:03:27;;;;;;;;;;;;;;;12.91;52.85;101057.66;1037940;28;622;-56
2021/12/23 03:04:18;;;;;;;;;;;;;;;12.91;52.68;101063.00;1037552;28;1758;-56
2021/12/23 03:05:08;;;;;;;;;;;;;;;12.92;52.92;101059.34;1037561;28;614;-56
2021/12/23 03:05:58;;;;;;;;;;;;;;;12.92;53.23;101063.84;1037331;28;727;-55
2021/12/23 03:06:49;;;;;;;;;;;;;;;12.90;53.46;101063.97;1037502;28;751;-55
2021/12/23 03:07:39;;;;;;;;;;;;;;;12.91;52.91;101059.47;1040377;28;1910;-55
2021/12/23 03:08:30;;;;;;;;;;;;;;;12.91;53.08;101056.78;1041639;28;644;-55
2021/12/23 03:09:20;;;;;;;;;;;;;;;12.90;53.41;101050.59;1038076;28;621;-56
2021/12/23 03:10:11;;;;;;;;;;;;;;;12.90;53.67;101061.28;1037547;28;637;-56
2021/12/23 03:11:01;;;;;;;;;;;;;;;12.89;53.60;101054.25;1038243;28;610;-56
2021/12/23 03:11:51;;;;;;;;;;;;;;;12.90;52.88;101057.78;1038178;28;664;-54
2021/12/23 03:12:42;;;;;;;;;;;;;;;12.89;53.07;101061.41;1041251;28;689;-55
2021/12/23 03:13:32;;;;;;;;;;;;;;;12.89;52.97;101053.41;1042575;28;633;-55
2021/12/23 03:14:23;;;;;;;;;;;;;;;12.89;53.50;101059.59;1038227;28;1674;-55
2021/12/23 03:15:13;;;;;;;;;;;;;;;12.89;53.03;101056.06;1037513;28;599;-55
2021/12/23 03:16:03;;;;;;;;;;;;;;;12.90;53.71;101057.78;1038252;28;696;-55
2021/12/23 03:16:54;;;;;;;;;;;;;;;12.90;52.89;101060.47;1038089;28;641;-56
2021/12/23 03:17:44;;;;;;;;;;;;;;;12.89;52.72;101053.41;1038208;28;726;-55
2021/12/23 03:18:35;;;;;;;;;;;;;;;12.89;53.65;101053.41;1037901;28;856;-54
2021/12/23 03:19:25;;;;;;;;;;;;;;;12.85;53.42;101053.63;1038171;28;613;-56
2021/12/23 03:20:15;;;;;;;;;;;;;;;12.88;52.79;101049.00;1038197;28;649;-55
2021/12/23 03:21:06;;;;;;;;;;;;;;;12.86;53.13;101044.63;1040877;28;709;-54
2021/12/23 03:21:56;;;;;;;;;;;;;;;12.84;53.55;101041.19;1042050;28;645;-54
2021/12/23 03:22:47;;;;;;;;;;;;;;;12.84;53.22;101033.19;1041519;28;633;-54
2021/12/23 03:23:37;;;;;;;;;;;;;;;12.85;53.43;101028.69;1037476;28;689;-52
2021/12/23 03:24:27;;;;;;;;;;;;;;;12.83;53.17;101023.44;1037890;28;1828;-52
2021/12/23 03:25:18;;;;;;;;;;;;;;;12.84;53.62;101024.31;1037484;28;692;-55
2021/12/23 03:26:08;;;;;;;;;;;;;;;12.85;53.51;101012.63;1038665;28;683;-54
2021/12/23 03:26:59;;;;;;;;;;;;;;;12.84;52.91;101009.09;1038436;28;621;-52
2021/12/23 03:27:49;;;;;;;;;;;;;;;12.84;53.48;101005.56;1038208;28;649;-52
2021/12/23 03:28:40;;;;;;;;;;;;;;;12.82;53.74;101003.00;1038603;28;637;-55
2021/12/23 03:29:30;;;;;;;;;;;;;;;12.81;54.03;101009.31;1038610;28;673;-53
2021/12/23 03:30:20;;;;;;;;;;;;;;;12.82;52.83;101011.03;1038577;28;606;-54
2021/12/23 03:31:11;;;;;;;;;;;;;;;12.82;53.19;101005.69;1038460;28;622;-55
2021/12/23 03:32:01;;;;;;;;;;;;;;;12.81;53.19;100995.94;1038733;28;613;-54
2021/12/23 03:32:52;;;;;;;;;;;;;;;12.82;52.80;100999.47;1038577;28;627;-55
2021/12/23 03:33:42;;;;;;;;;;;;;;;12.81;53.13;100990.59;1041082;28;700;-55
2021/12/23 03:34:32;;;;;;;;;;;;;;;12.82;53.24;100978.94;1041160;28;1525;-54
2021/12/23 03:35:23;;;;;;;;;;;;;;;12.81;53.71;100979.91;1038037;28;970;-55
2021/12/23 03:36:13;;;;;;;;;;;;;;;12.81;53.93;100977.22;1038051;28;673;-55
2021/12/23 03:37:04;;;;;;;;;;;;;;;12.81;53.97;100984.41;1038022;28;638;-56
2021/12/23 03:37:54;;;;;;;;;;;;;;;12.81;53.69;100976.38;1037995;28;681;-55
2021/12/23 03:38:45;;;;;;;;;;;;;;;12.80;53.53;100980.88;1038195;28;680;-54
2021/12/23 03:39:35;;;;;;;;;;;;;;;12.80;53.27;100975.53;1037293;28;783;-55
2021/12/23 03:40:25;;;;;;;;;;;;;;;12.79;53.65;100976.47;1041092;28;700;-55
2021/12/23 03:41:16;;;;;;;;;;;;;;;12.80;53.84;100974.66;1042427;28;637;-58
2021/12/23 03:42:06;;;;;;;;;;;;;;;12.80;53.03;100972.00;1038708;28;980;-57
2021/12/23 03:42:57;;;;;;;;;;;;;;;12.80;52.93;100980.88;1038146;28;716;-56
2021/12/23 03:43:47;;;;;;;;;;;;;;;12.80;53.44;100978.19;1040953;28;870;-57
2021/12/23 03:44:37;;;;;;;;;;;;;;;12.79;53.60;100984.50;1042221;28;1772;-57
2021/12/23 03:45:28;;;;;;;;;;;;;;;12.80;53.06;100990.72;1037739;28;638;-56
2021/12/23 03:46:18;;;;;;;;;;;;;;;12.79;53.26;100986.31;1041017;28;634;-56
2021/12/23 03:47:09;;;;;;;;;;;;;;;12.80;53.82;100986.22;1041405;28;671;-56
2021/12/23 03:47:59;;;;;;;;;;;;;;;12.80;52.91;100985.34;1037400;28;767;-54
2021/12/23 03:48:49;;;;;;;;;;;;;;;12.79;53.09;100989.00;1038543;28;699;-54
2021/12/23 03:49:40;;;;;;;;;;;;;;;12.79;53.46;100984.50;1037003;28;1314;-55
2021/12/23 03:50:30;;;;;;;;;;;;;;;12.80;53.36;100982.69;1034448;28;673;-56
2021/12/23 03:51:21;;;;;;;;;;;;;;;12.80;53.65;100982.69;1034436;28;673;-56
2021/12/23 03:52:11;;;;;;;;;;;;;;;12.79;53.45;100979.16;1034353;28;630;-56
2021/12/23 03:53:01;;;;;;;;;;;;;;;12.80;53.61;100980.88;1034604;28;617;-56
2021/12/23 03:53:52;;;;;;;;;;;;;;;12.78;53.54;100988.13;1034512;28;625;-54
2021/12/23 03:54:42;;;;;;;;;;;;;;;12.79;53.45;100995.19;1037276;28;1666;-54
2021/12/23 03:55:33;;;;;;;;;;;;;;;12.79;53.28;100995.19;1038580;28;704;-54
2021/12/23 03:56:23;;;;;;;;;;;;;;;12.77;52.97;101002.47;1038503;28;641;-56
2021/12/23 03:57:13;;;;;;;;;;;;;;;12.78;53.78;101004.19;1038578;28;979;-56
2021/12/23 03:58:04;;;;;;;;;;;;;;;12.79;53.22;100994.34;1038518;28;703;-55
2021/12/23 03:58:55;;;;;;;;;;;;;;;12.78;52.74;100995.31;1038525;28;625;-55
2021/12/23 03:59:45;;;;;;;;;;;;;;;12.77;53.06;101006.97;1038004;28;622;-56
2021/12/23 04:00:35;;;;;;;;;;;;;;;12.76;53.06;101000.75;1038480;28;625;-56
2021/12/23 04:01:26;;;;;;;;;;;;;;;12.76;53.05;101007.94;1038331;28;685;-56
2021/12/23 04:02:16;;;;;;;;;;;;;;;12.77;53.09;101012.31;1040982;28;680;-56
2021/12/23 04:03:07;;;;;;;;;;;;;;;12.74;52.99;101010.72;1041737;28;1213;-55
2021/12/23 04:03:57;;;;;;;;;;;;;;;12.75;53.47;101019.59;1041976;28;613;-56
2021/12/23 04:04:47;;;;;;;;;;;;;;;12.75;53.88;101020.44;1042161;28;1373;-56
2021/12/23 04:05:38;;;;;;;;;;;;;;;12.76;53.10;101022.16;1041529;28;637;-56
2021/12/23 04:06:28;;;;;;;;;;;;;;;12.75;53.73;101014.25;1041216;28;1753;-55
2021/12/23 04:07:19;;;;;;;;;;;;;;;12.74;53.70;101021.41;1041552;28;1914;-55
2021/12/23 04:08:09;;;;;;;;;;;;;;;12.73;53.36;101016.16;1041527;28;626;-56
2021/12/23 04:09:00;;;;;;;;;;;;;;;12.73;53.23;101011.66;1041473;28;676;-52
2021/12/23 04:09:50;;;;;;;;;;;;;;;12.73;53.74;101021.50;1042663;28;692;-53
2021/12/23 04:10:40;;;;;;;;;;;;;;;12.75;53.53;101016.91;1041429;28;677;-53
2021/12/23 04:11:31;;;;;;;;;;;;;;;12.74;53.50;101020.56;1041201;28;664;-50
2021/12/23 04:12:22;;;;;;;;;;;;;;;12.73;53.63;101017.03;1041384;28;927;-53
2021/12/23 04:13:12;;;;;;;;;;;;;;;12.74;53.34;101023.22;1041390;28;681;-51
2021/12/23 04:14:02;;;;;;;;;;;;;;;12.74;54.03;101023.22;1041529;28;621;-55
2021/12/23 04:14:53;;;;;;;;;;;;;;;12.73;52.99;101021.50;1041322;28;1310;-53
2021/12/23 04:15:43;;;;;;;;;;;;;;;12.72;53.15;101020.66;1042735;28;640;-51
2021/12/23 04:16:34;;;;;;;;;;;;;;;12.72;53.86;101026.00;1041996;28;704;-52
2021/12/23 04:17:24;;;;;;;;;;;;;;;12.71;53.22;101016.31;1042626;28;633;-53
2021/12/23 04:18:14;;;;;;;;;;;;;;;12.71;53.21;101018.97;1042663;28;673;-52
2021/12/23 04:19:08;;;;;;;;;;;;;;;12.71;53.47;101013.63;1042327;28;645;-54
2021/12/23 04:20:16;;;;;;;;;;;;;;;12.71;53.90;101012.78;1042133;28;692;-52
2021/12/23 04:21:06;;;;;;;;;;;;;;;12.70;53.04;101011.06;1042380;28;735;-52
2021/12/23 04:21:57;;;;;;;;;;;;;;;12.70;53.53;100998.56;1042677;28;660;-54
2021/12/23 04:22:47;;;;;;;;;;;;;;;12.71;53.72;101002.06;1041985;28;645;-51
2021/12/23 04:23:38;;;;;;;;;;;;;;;12.70;53.10;101006.56;1042283;28;673;-53
2021/12/23 04:24:28;;;;;;;;;;;;;;;12.70;53.16;101000.38;1041607;28;1788;-52
2021/12/23 04:25:19;;;;;;;;;;;;;;;12.70;53.50;100989.66;1041425;28;758;-54
2021/12/23 04:26:09;;;;;;;;;;;;;;;12.71;53.88;100994.06;1041360;28;621;-51
2021/12/23 04:27:00;;;;;;;;;;;;;;;12.70;53.83;101003.03;1041536;28;621;-53
2021/12/23 04:27:50;;;;;;;;;;;;;;;12.69;53.69;100988.81;1041074;28;642;-51
2021/12/23 04:28:47;;;;;;;;;;;;;;;12.68;53.03;100989.78;1040764;28;610;-51
2021/12/23 04:29:37;;;;;;;;;;;;;;;12.70;53.11;100981.66;1041288;28;641;-54
2021/12/23 04:30:28;;;;;;;;;;;;;;;12.69;53.58;100978.13;1042001;28;743;-52
2021/12/23 04:31:18;;;;;;;;;;;;;;;12.69;53.95;100972.78;1041272;28;615;-52
2021/12/23 04:32:08;;;;;;;;;;;;;;;12.67;53.71;100976.53;1041389;28;645;-55